Rossie, New York
Current Conditions -  °F | °C
As of 10:58 AM on Monday 26 Jan 2015 (Local Time) from KGTB Reporting Station
Overcast Overcast  
Wind Chill: -14°   Ceiling: 8000
Heat Index: -2°   Visibility: 10mi
Dew Point: -9°   Wind: 6mph
Humidity: 71%   Direction: 70°ENE
Pressure: 30.06"   Gusts: NA
Location:  44.435°N, 75.6656°W
Report Text: KGTB 261558Z AUTO 07005KT 10SM OVC080 M19/M23 A3006 RMK AO2 SLP199 T11891229
Loading
Personal Weather Stations






























Interactive Weather Map New forecast layout! Learn more

10-Day Weather Forecast

Advertisements
Track Severe Weather on mobile